AirNav   Air Wisconsin Up To $57,000 Bonus
 
 885 users online  

4PA0 Flicksville Heliport
Flicksville, Pennsylvania, USA

GOING TO FLICKSVILLE?


FAA INFORMATION EFFECTIVE 02 JANUARY 2020

Location

FAA Identifier: 4PA0
Lat/Long: 40-50-35.5000N 075-12-19.1500W
40-50.591667N 075-12.319167W
40.8431944,-75.2053194
(estimated)
Elevation: 447 ft. / 136 m (estimated)
From city: 2 miles S of FLICKSVILLE, PA
Time zone: UTC -5 (UTC -4 during Daylight Saving Time)
Zip code: 18013

Heliport Operations

Heliport use: Private use. Permission required prior to landing
Activation date: 03/2011
Control tower: no
ARTCC: NEW YORK CENTER
FSS: WILLIAMSPORT FLIGHT SERVICE STATION
Attendance: MON-FRI 1200-2200
Wind indicator: yes
Segmented circle: no

Heliport Communications

WX ASOS at ABE (16 nm SW): 126.975 (610-266-3579)
WX ASOS at MPO (19 nm NW): 120.275 (570-839-1584)

Nearby radio navigation aids

VOR radial/distance  VOR name  Freq  Var
FJCr068/13.3ALLENTOWN VORTAC117.5010W
BWZr290/17.6BROADWAY VOR/DME114.2011W
STWr250/17.8STILLWATER VOR/DME109.6011W
SBJr317/26.2SOLBERG VOR/DME112.9010W
ETXr063/26.9EAST TEXAS VOR/DME110.2009W
SAXr257/33.1SPARTA VORTAC115.7011W
LVZr150/33.8WILKES-BARRE VORTAC111.6010W
ARDr349/37.9YARDLEY VOR/DME108.2010W

 
NDB name  Hdg/Dist  Freq  Var  ID
CHATHAM293/35.825413WCAT -.-. .- -

Heliport Services

Runway Information

Helipad H1

Dimensions: 50 x 50 ft. / 15 x 15 m
Surface: asphalt, in good condition
Traffic pattern: leftleft

Heliport Ownership and Management from official FAA records

Ownership: Privately-owned
Owner: CARL TOLINO
240 FLICKSVILLE ROAD
BANGOR, PA 18013
Phone 484-221-1028
Manager: CARL TOLINO
240 FLICKSVILLE ROAD
BANGOR, PA 18013
Phone 484-221-1028

Heliport Operational Statistics

Aircraft based on the field: 1
Helicopters: 1
    

Additional Remarks

FOR CD CTC ALLENTOWN APCH AT 800-728-6322.

Instrument Procedures

There are no published instrument procedures at 4PA0.

Some nearby airports with instrument procedures:

N43 - Braden Airpark (6 nm S)
N53 - Stroudsburg-Pocono Airport (12 nm N)
1N7 - Blairstown Airport (12 nm NE)
KABE - Lehigh Valley International Airport (16 nm SW)
N85 - Alexandria Airport (18 nm SE)
KMPO - Pocono Mountains Municipal Airport (19 nm NW)
N40 - Sky Manor Airport (20 nm SE)
 
Loc | Ops | Rwys | IFR | FBO | Links
Com | Nav | Svcs | Stats | Notes
Aerial photo
No photo
 
Sectional chart

 
Airport distance calculator
Flying to Flicksville Heliport? Find the distance to fly.

From to 4PA0

Sunrise and sunset
Times for 21-Jan-2020
 Local
(UTC-5)
 Zulu
(UTC)
Morning civil twilight06:5111:51
Sunrise07:2112:21
Sunset17:0322:03
Evening civil twilight17:3322:33

Current date and time
Zulu (UTC)  22-Jan-2020 03:07:07
Local (UTC-5)  21-Jan-2020 22:07:07
 
METAR
KABE 
16nm SW 
220251Z 27003KT 10SM CLR M03/M11 A3045 RMK AO2 SLP316 T10281111 58001
KMPO 
19nm NW 
220253Z AUTO 32005KT 10SM CLR M09/M13 A3033 RMK AO2 SLP309 T10941133 50001
KXLL 
21nm SW 
220255Z AUTO 00000KT 10SM CLR M02/M09 A3047 RMK AO2
K12N 
24nm NE 
220254Z AUTO 00000KT M07/M11 A3043 RMK AO1 SLP322 T10721106 58001
KUKT 
26nm S 
220255Z AUTO 00000KT 10SM CLR M06/M10 A3045 RMK A01
KCKZ 
28nm S 
220255Z AUTO 34003KT 10SM CLR M06/M11 A3045 RMK AO2
KSMQ 
28nm SE 
ASOS 120.60 908-722-2139
220253Z AUTO 00000KT 10SM CLR M05/M11 A3045 RMK AO2 SLP315 T10501111 52001
KDYL 
31nm S 
220254Z AUTO 00000KT 10SM CLR M04/M12 A3045 RMK AO2 SLP320 T10441117 50002
TAF
KABE 
16nm SW 
211722Z 2118/2218 34010KT P6SM SKC FM212300 VRB03KT P6SM SCT200 FM221600 26005KT P6SM SKC
NOTAMs
Click for the latest NOTAMs
NOTAMs are issued by the DoD/FAA and will open in a separate window not controlled by AirNav.

 

 
 

Would you like to see your business listed on this page?

 If your business provides an interesting product or service to pilots, flight crews, aircraft, or users of the Flicksville Heliport, you should consider listing it here.  To start the listing process, click on the button below
 
Add a business
 

Other Pages about Flicksville Heliport

Update a link
 
Copyright © AirNav, LLC. All rights reserved. Privacy Policy  Contact